createdAt,value
2022-09-12T00:03:35.989Z,19
2022-09-12T00:09:55.925Z,19
2022-09-12T00:16:19.065Z,16.1
2022-09-12T00:22:39.055Z,16.1
2022-09-12T00:29:01.944Z,17.5
2022-09-12T00:35:21.979Z,17.5
2022-09-12T00:41:44.991Z,13.9
2022-09-12T00:48:04.997Z,13.9
2022-09-12T00:54:28.027Z,11.8
2022-09-12T01:00:48.011Z,11.8
2022-09-12T01:07:10.980Z,18.1
2022-09-12T01:13:30.996Z,18.1
2022-09-12T01:19:53.964Z,13.4
2022-09-12T01:26:14.006Z,13.4
2022-09-12T01:32:36.928Z,15
2022-09-12T01:38:56.955Z,15
2022-09-12T01:45:19.873Z,23.5
2022-09-12T01:51:40.022Z,23.5
2022-09-12T01:58:02.946Z,6.8
2022-09-12T02:04:22.944Z,6.8
2022-09-12T02:10:46.036Z,8.3
2022-09-12T02:17:05.932Z,8.3
2022-09-12T02:23:28.979Z,9.2
2022-09-12T02:29:49.008Z,9.2
2022-09-12T02:36:11.925Z,6.6
2022-09-12T02:42:32.015Z,6.6
2022-09-12T02:48:54.947Z,18
2022-09-12T02:55:15.108Z,18
2022-09-12T03:01:37.955Z,23
2022-09-12T03:07:58.082Z,23
2022-09-12T03:14:21.038Z,13.5
2022-09-12T03:36:50.943Z,13.1
2022-09-12T03:43:10.903Z,13.1
2022-09-12T03:49:33.948Z,8.3
2022-09-12T03:55:53.933Z,8.3
2022-09-12T04:02:16.915Z,14.1
2022-09-12T04:08:36.929Z,14.1
2022-09-12T04:14:59.938Z,13.7
2022-09-12T04:21:19.923Z,13.7
2022-09-12T04:27:42.914Z,13.6
2022-09-12T04:34:02.902Z,13.6
2022-09-12T04:40:25.926Z,6.8
2022-09-12T04:46:45.887Z,6.8
2022-09-12T04:53:08.935Z,10.4
2022-09-12T04:59:28.965Z,10.4
2022-09-12T05:05:55.836Z,11.5
2022-09-12T05:12:11.946Z,11.5
2022-09-12T05:18:34.912Z,7.1
2022-09-12T05:24:54.945Z,7.1
2022-09-12T05:31:17.960Z,5.2
2022-09-12T05:37:37.886Z,5.2
2022-09-12T05:44:00.943Z,8.4
2022-09-12T05:50:20.905Z,8.4
2022-09-12T05:56:43.963Z,7.6
2022-09-12T06:03:03.905Z,7.6
2022-09-12T06:09:26.952Z,9.7
2022-09-12T06:15:46.904Z,9.7
2022-09-12T06:22:09.909Z,8.1
2022-09-12T06:28:29.964Z,8.1
2022-09-12T06:34:52.879Z,8.2
2022-09-12T06:41:12.931Z,8.2
2022-09-12T06:47:36.053Z,12.6
2022-09-12T06:53:55.915Z,12.6
2022-09-12T07:00:18.962Z,10.4
2022-09-12T07:06:38.974Z,10.4
2022-09-12T07:13:01.940Z,5.6
2022-09-12T07:19:22.137Z,5.6
2022-09-12T07:25:44.965Z,4.1
2022-09-12T07:32:04.968Z,4.1
2022-09-12T07:38:27.977Z,7.4
2022-09-12T07:44:48.021Z,7.4
2022-09-12T07:51:10.993Z,8.2
2022-09-12T07:57:30.941Z,8.2
2022-09-12T08:03:54.015Z,3.9
2022-09-12T08:10:13.994Z,3.9
2022-09-12T08:16:37.036Z,18.3
2022-09-12T08:22:56.990Z,18.3
2022-09-12T08:29:19.939Z,33.3
2022-09-12T08:35:39.983Z,33.3
2022-09-12T08:58:45.741Z,12.5
2022-09-12T09:05:05.921Z,12.5
2022-09-12T09:11:28.912Z,8.4
2022-09-12T09:17:49.041Z,8.4
2022-09-12T09:24:11.927Z,2.3
2022-09-12T09:30:32.007Z,2.3
2022-09-12T09:36:54.978Z,1.5
2022-09-12T09:43:14.906Z,1.5
2022-09-12T09:49:37.957Z,2.2
2022-09-12T09:55:58.002Z,2.2
2022-09-12T10:02:23.968Z,3.1
2022-09-12T10:08:40.914Z,3.1
2022-09-12T10:15:03.925Z,6.4
2022-09-12T10:21:23.965Z,6.4
2022-09-12T10:27:46.888Z,2.8
2022-09-12T10:34:06.980Z,2.8
2022-09-12T10:40:30.103Z,2.8
2022-09-12T10:46:49.886Z,2.8
2022-09-12T10:53:13.045Z,4.6
2022-09-12T10:59:32.920Z,4.6
2022-09-12T11:05:55.941Z,3.3
2022-09-12T11:12:15.924Z,3.3
2022-09-12T11:18:38.911Z,2
2022-09-12T11:24:58.936Z,2
2022-09-12T11:31:21.925Z,4.8
2022-09-12T11:37:42.239Z,4.8
2022-09-12T11:44:04.947Z,4.1
2022-09-12T11:50:24.975Z,4.1
2022-09-12T11:56:48.015Z,2.2
2022-09-12T12:03:07.895Z,2.2
2022-09-12T12:09:30.955Z,1.1
2022-09-12T12:15:51.079Z,1.1
2022-09-12T12:22:13.922Z,1.1
2022-09-12T12:28:34.859Z,1.1
2022-09-12T12:34:57.011Z,1.9
2022-09-12T12:41:17.027Z,1.9
2022-09-12T12:47:39.925Z,1.5
2022-09-12T12:53:59.910Z,1.5
2022-09-12T13:00:22.912Z,2.6
2022-09-12T13:06:42.956Z,2.6
2022-09-12T13:13:05.950Z,1.8
2022-09-12T13:19:25.917Z,1.8
2022-09-12T13:25:48.966Z,0.6
2022-09-12T13:32:08.994Z,0.6
2022-09-12T13:38:32.000Z,0.6
2022-09-12T13:44:52.045Z,0.6
2022-09-12T13:51:15.173Z,1.1
2022-09-12T13:57:35.016Z,1.1
2022-09-12T14:03:58.877Z,1.6
2022-09-12T14:20:05.868Z,2.7
2022-09-12T14:26:25.913Z,2.7
2022-09-12T14:32:48.886Z,3.3
2022-09-12T14:39:08.940Z,3.3
2022-09-12T14:45:31.885Z,9.7
2022-09-12T14:51:51.920Z,9.7
2022-09-12T14:58:15.094Z,1.3
2022-09-12T15:04:34.957Z,1.3
2022-09-12T15:10:59.111Z,1.4
2022-09-12T15:17:18.929Z,1.4
2022-09-12T15:23:41.956Z,0.8
2022-09-12T15:30:01.886Z,0.8
2022-09-12T15:36:24.996Z,1.2
2022-09-12T15:42:44.887Z,1.2
2022-09-12T15:49:07.900Z,1.3
2022-09-12T15:55:27.921Z,1.3
2022-09-12T16:01:50.911Z,2.5
2022-09-12T16:08:10.926Z,2.5
2022-09-12T16:14:33.917Z,2.5
2022-09-12T16:20:54.246Z,2.5
2022-09-12T16:27:16.912Z,1.6
2022-09-12T16:33:36.960Z,1.6
2022-09-12T16:40:00.087Z,2
2022-09-12T16:46:19.915Z,2
2022-09-12T16:52:42.935Z,1.1
2022-09-12T16:59:02.901Z,1.1
2022-09-12T17:05:25.880Z,6.3
2022-09-12T17:11:45.957Z,6.3
2022-09-12T17:18:08.886Z,1.1
2022-09-12T17:24:28.885Z,1.1
2022-09-12T17:30:52.057Z,1.4
2022-09-12T17:37:11.888Z,1.4
2022-09-12T17:43:34.930Z,2.2
2022-09-12T17:50:05.221Z,2.2
2022-09-12T17:56:17.868Z,1
2022-09-12T18:02:37.966Z,1
2022-09-12T18:09:00.901Z,1.4
2022-09-12T18:15:20.884Z,1.4
2022-09-12T18:21:43.892Z,9.2
2022-09-12T18:28:07.281Z,9.2
2022-09-12T18:34:26.913Z,0.7
2022-09-12T18:40:46.877Z,0.7
2022-09-12T18:47:09.942Z,3.9
2022-09-12T18:53:29.880Z,3.9
2022-09-12T18:59:52.870Z,7.6
2022-09-12T19:06:12.940Z,7.6
2022-09-12T19:12:35.875Z,2.2
2022-09-12T19:18:55.899Z,2.2
2022-09-12T19:25:18.928Z,0.9
2022-09-12T19:31:38.913Z,0.9
2022-09-12T19:38:01.925Z,1.8
2022-09-12T19:44:21.931Z,1.8
2022-09-12T19:50:44.876Z,1.7
2022-09-12T19:57:04.933Z,1.7
2022-09-12T20:19:53.820Z,3.3
2022-09-12T20:26:13.879Z,3.3
2022-09-12T20:32:36.869Z,4.2
2022-09-12T20:38:57.073Z,4.2
2022-09-12T20:45:19.872Z,1.9
2022-09-12T20:51:39.877Z,1.9
2022-09-12T20:58:02.936Z,3.2
2022-09-12T21:04:22.890Z,3.2
2022-09-12T21:10:45.979Z,1.3
2022-09-12T21:17:05.901Z,1.3
2022-09-12T21:23:28.902Z,1.4
2022-09-12T21:29:49.227Z,1.4
2022-09-12T21:36:12.114Z,2.3
2022-09-12T21:42:31.926Z,2.3
2022-09-12T21:48:54.879Z,4.5
2022-09-12T21:55:14.918Z,4.5
2022-09-12T22:01:37.937Z,1.5
2022-09-12T22:24:34.917Z,3.9
2022-09-12T22:30:55.041Z,3.9
2022-09-12T22:37:17.879Z,3.9
2022-09-12T22:43:37.960Z,3.9
2022-09-12T22:50:00.897Z,2.9
2022-09-12T22:56:20.917Z,2.9
2022-09-12T23:02:43.902Z,2.6
2022-09-12T23:09:03.880Z,2.6
2022-09-12T23:15:26.928Z,1.7
2022-09-12T23:21:46.909Z,1.7
2022-09-12T23:28:09.905Z,2.7
2022-09-12T23:34:29.926Z,2.7
2022-09-12T23:40:53.032Z,19.3
2022-09-12T23:47:12.871Z,19.3
2022-09-12T23:53:35.891Z,8.3
2022-09-12T23:59:55.933Z,8.3
